This is the latest recevied weather packets stored in our database for station/object I3RKE-10. If no packets are shown the sender has not sent any weather packets the latest 10 day(s).
| Time | Temp. | Humidity | Pressure | Rain* | Wind** | Luminosity | Snow |
|---|---|---|---|---|---|---|---|
| 1777845397 | 14.44° C | 59% | 1010.8 hPa | - | - | - | - |
| 1777843596 | 15.56° C | 56% | 1010.9 hPa | - | - | - | - |
| 1777842696 | 15.56° C | 56% | 1010.8 hPa | - | - | - | - |
| 1777839996 | 16.67° C | 54% | 1010.8 hPa | - | - | - | - |
| 1777839096 | 17.22° C | 52% | 1010.7 hPa | - | - | - | - |
| 1777838196 | 17.78° C | 49% | 1010.6 hPa | - | - | - | - |
| 1777836396 | 19.44° C | 44% | 1010.7 hPa | - | - | - | - |
| 1777835496 | 20° C | 40% | 1010.5 hPa | - | - | - | - |
| 1777831895 | 22.22° C | 33% | 1010.1 hPa | - | - | - | - |
| 1777829195 | 24.44° C | 27% | 1009.7 hPa | - | - | - | - |
| 1777828295 | 25° C | 27% | 1009.9 hPa | - | - | - | - |
| 1777827395 | 26.67° C | 26% | 1009.8 hPa | - | - | - | - |
| 1777826495 | 28.33° C | 25% | 1009.9 hPa | - | - | - | - |
| 1777825595 | 28.89° C | 24% | 1009.9 hPa | - | - | - | - |
| 1777821994 | 32.78° C | 21% | 1010 hPa | - | - | - | - |
| 1777820194 | 31.11° C | 24% | 1010.1 hPa | - | - | - | - |
| 1777818394 | 30° C | 24% | 1010.1 hPa | - | - | - | - |
| 1777817494 | 28.89° C | 22% | 1010.2 hPa | - | - | - | - |
| 1777816594 | 27.22° C | 24% | 1010.5 hPa | - | - | - | - |
| 1777815694 | 29.44° C | 22% | 1010.6 hPa | - | - | - | - |
| 1777811193 | 27.22° C | 24% | 1011.4 hPa | - | - | - | - |
| 1777810293 | 26.67° C | 26% | 1011.3 hPa | - | - | - | - |
| 1777809393 | 26.67° C | 25% | 1011.4 hPa | - | - | - | - |
| 1777808493 | 26.67° C | 27% | 1011.5 hPa | - | - | - | - |
| 1777807593 | 26.11° C | 28% | 1011.6 hPa | - | - | - | - |
* Rain since midnight (hover to see other rain measurements)
** Current wind speed in m/s (hover to see current wind gust speed)